الصفحة الرئيسية
METAR-TAF:

METAR-TAF

مطار :

مطار جانت تيسكا

جانت, الجزائر

دائرة عرض: 24-33N, خط طول: 009-28E, ارتفاع: 1054 متر

مراقبة الطقس الحالي

تاريخ ووقت الإصدار 1ساعة و 6 دقيقة قبل الساعة 17:00UTC
ريح 6 عقدة من الغرب/الشمال الغربي
درجة الحرارة 21°درجة مئوية
الرطوبة 13%
ضغط 1017 hPa
الرؤية 10 كم أو أكثر
الغيوم لا تقل 1500 م ولا وجود لمزنة ركامية السحاب الأسود

METAR: DAAJ 211700Z 30006KT CAVOK 21/M08 Q1017

زمن: 19:06 (18:06 UTC)

توقعات

تاريخ ووقت الإصدار 1ساعة و 6 دقيقة قبل الساعة 17:00UTC
التوقعات صالحة من21 الساعة 18 UTC إلى 22 الساعة 18 UTC
ريح 2 عقدةمن اتجاهات متغيرة
الرؤية 10 كم أو أكثر
الغيوم لا تقل 1500 م ولا وجود لمزنة ركامية السحاب الأسود
أصبح
من 21 الساعة 20 UTC إلى 21 الساعة 23 UTC
ريح 10 عقدة من الشمال/الشمال الشرقي
أصبح
من 22 الساعة 09 UTC إلى 22 الساعة 11 UTC
ريح 2 عقدةمن اتجاهات متغيرة

TAF: DAAJ 211700Z 2118/2218 VRB02KT CAVOK BECMG 2120/2123 03010KT BECMG 2209/2211 VRB02KT

أرصاد الطقس والتوقعات من أكثر من 4000 مطار (تقارير الطقس للمطار METAR والتنبؤ بالطقس بالمطارTAF).

المحطات المتاحة هي النقط الصفراء والحمراء على الخريطة.

حرك المؤشر فوق النقطة لمعرفة اسم المحطة.

ثم انقر لمعرفة أرصاد وتوقعات الطقس.

لتغيير الخارطة: اضغط على الأزرار الخضراء مع رمز الصليب الأسود للتكبير. على الزر الأخضر مع شرطة للتصغير، أو على الأسهم الخضراء للخرائط المجاورة.


METAR-TAF: